createdAt,value
2022-10-16T00:03:26.720Z,100.00
2022-10-16T00:08:33.990Z,100.00
2022-10-16T00:13:41.307Z,100.00
2022-10-16T00:18:45.310Z,100.00
2022-10-16T00:23:53.337Z,100.00
2022-10-16T00:28:58.837Z,100.00
2022-10-16T00:34:03.008Z,100.00
2022-10-16T00:39:07.198Z,100.00
2022-10-16T00:44:48.891Z,100.00
2022-10-16T00:49:55.588Z,100.00
2022-10-16T00:55:00.727Z,100.00
2022-10-16T01:00:09.835Z,100.00
2022-10-16T01:05:13.832Z,100.00
2022-10-16T01:10:29.169Z,100.00
2022-10-16T01:20:49.874Z,100.00
2022-10-16T01:26:17.917Z,100.00
2022-10-16T01:31:29.480Z,100.00
2022-10-16T01:36:39.784Z,100.00
2022-10-16T01:41:50.240Z,100.00
2022-10-16T01:46:59.277Z,100.00
2022-10-16T01:52:08.234Z,100.00
2022-10-16T01:57:15.297Z,100.00
2022-10-16T02:02:24.108Z,100.00
2022-10-16T02:07:28.773Z,100.00
2022-10-16T02:12:36.154Z,100.00
2022-10-16T02:17:43.059Z,100.00
2022-10-16T02:22:51.303Z,100.00
2022-10-16T02:27:59.852Z,100.00
2022-10-16T02:33:09.049Z,100.00
2022-10-16T02:38:14.828Z,100.00
2022-10-16T02:43:19.368Z,100.00
2022-10-16T02:48:25.144Z,100.00
2022-10-16T02:53:28.979Z,100.00
2022-10-16T02:58:32.708Z,100.00
2022-10-16T03:03:38.995Z,100.00
2022-10-16T03:08:42.779Z,100.00
2022-10-16T03:13:46.542Z,100.00
2022-10-16T03:18:51.798Z,100.00
2022-10-16T03:23:55.489Z,100.00
2022-10-16T03:28:59.440Z,100.00
2022-10-16T03:34:04.558Z,100.00
2022-10-16T03:39:08.433Z,100.00
2022-10-16T03:44:12.206Z,100.00
2022-10-16T03:49:20.254Z,100.00
2022-10-16T03:54:24.219Z,100.00
2022-10-16T03:59:27.980Z,100.00
2022-10-16T04:04:33.185Z,100.00
2022-10-16T04:09:37.809Z,100.00
2022-10-16T04:14:41.573Z,100.00
2022-10-16T04:19:46.609Z,100.00
2022-10-16T04:24:50.256Z,100.00
2022-10-16T04:29:53.985Z,100.00
2022-10-16T04:34:59.174Z,100.00
2022-10-16T04:40:03.387Z,100.00
2022-10-16T04:45:10.948Z,100.00
2022-10-16T04:50:18.570Z,100.00
2022-10-16T04:55:39.240Z,100.00
2022-10-16T05:00:42.900Z,100.00
2022-10-16T05:05:48.462Z,100.00
2022-10-16T05:10:52.175Z,100.00
2022-10-16T05:15:55.914Z,100.00
2022-10-16T05:21:01.242Z,100.00
2022-10-16T05:26:05.020Z,100.00
2022-10-16T05:31:09.110Z,100.00
2022-10-16T05:36:14.117Z,100.00
2022-10-16T05:41:22.409Z,100.00
2022-10-16T05:46:26.571Z,100.00
2022-10-16T05:51:31.709Z,98.95
2022-10-16T05:56:35.684Z,99.89
2022-10-16T06:01:39.363Z,97.42
2022-10-16T06:06:44.595Z,100.00
2022-10-16T06:11:48.222Z,98.58
2022-10-16T06:16:51.795Z,100.00
2022-10-16T06:21:59.134Z,95.45
2022-10-16T06:27:03.052Z,94.86
2022-10-16T06:32:06.886Z,93.46
2022-10-16T06:37:12.342Z,90.88
2022-10-16T06:42:16.607Z,90.39
2022-10-16T06:47:20.398Z,86.01
2022-10-16T06:52:25.895Z,84.66
2022-10-16T06:57:29.798Z,88.70
2022-10-16T07:02:34.922Z,84.10
2022-10-16T07:07:40.259Z,88.58
2022-10-16T07:12:46.207Z,84.77
2022-10-16T07:17:50.145Z,86.05
2022-10-16T07:22:55.424Z,83.14
2022-10-16T07:28:02.165Z,84.99
2022-10-16T07:33:09.272Z,78.96
2022-10-16T07:38:14.657Z,79.47
2022-10-16T07:43:18.550Z,80.73
2022-10-16T07:48:22.863Z,84.44
2022-10-16T07:53:29.728Z,83.35
2022-10-16T07:58:34.110Z,83.53
2022-10-16T08:03:38.660Z,77.05
2022-10-16T08:08:45.348Z,81.29
2022-10-16T08:13:58.224Z,77.50
2022-10-16T08:19:02.532Z,76.12
2022-10-16T08:24:08.228Z,71.77
2022-10-16T08:29:12.283Z,73.04
2022-10-16T08:34:21.701Z,69.58
2022-10-16T08:39:26.895Z,68.56
2022-10-16T08:44:41.783Z,67.81
2022-10-16T08:49:55.533Z,66.88
2022-10-16T08:55:00.739Z,69.92
2022-10-16T09:00:14.100Z,66.44
2022-10-16T09:05:26.393Z,65.44
2022-10-16T09:10:37.161Z,62.07
2022-10-16T09:15:45.677Z,65.15
2022-10-16T09:20:57.436Z,68.32
2022-10-16T09:26:14.536Z,69.60
2022-10-16T09:31:26.858Z,68.99
2022-10-16T09:36:31.302Z,70.47
2022-10-16T09:41:39.298Z,71.80
2022-10-16T09:46:43.343Z,65.59
2022-10-16T09:51:47.131Z,66.61
2022-10-16T09:56:53.147Z,70.89
2022-10-16T10:01:57.704Z,68.16
2022-10-16T10:07:01.901Z,65.75
2022-10-16T10:12:21.786Z,66.17
2022-10-16T10:17:29.293Z,66.54
2022-10-16T10:22:34.668Z,67.95
2022-10-16T10:27:44.706Z,66.15
2022-10-16T10:32:54.826Z,65.08
2022-10-16T10:38:07.902Z,66.06
2022-10-16T10:43:25.402Z,64.44
2022-10-16T10:48:47.178Z,63.35
2022-10-16T10:54:10.431Z,61.07
2022-10-16T10:59:36.443Z,61.00
2022-10-16T11:05:01.784Z,58.62
2022-10-16T11:10:11.172Z,59.41
2022-10-16T11:15:23.670Z,60.34
2022-10-16T11:20:45.925Z,59.51
2022-10-16T11:26:19.995Z,58.99
2022-10-16T11:31:38.883Z,56.83
2022-10-16T11:37:00.815Z,62.32
2022-10-16T11:42:18.188Z,54.75
2022-10-16T11:47:58.094Z,53.20
2022-10-16T11:53:41.219Z,50.59
2022-10-16T11:59:21.969Z,50.31
2022-10-16T12:10:35.006Z,53.34
2022-10-16T12:16:04.490Z,50.75
2022-10-16T12:21:40.362Z,47.50
2022-10-16T12:27:35.364Z,49.63
2022-10-16T12:33:31.914Z,46.89
2022-10-16T12:39:40.519Z,47.36
2022-10-16T12:44:57.226Z,46.14
2022-10-16T12:50:07.256Z,44.10
2022-10-16T12:55:19.317Z,47.52
2022-10-16T13:00:28.491Z,45.45
2022-10-16T13:05:42.991Z,45.66
2022-10-16T13:10:53.764Z,44.64
2022-10-16T13:16:07.244Z,45.14
2022-10-16T13:21:21.974Z,44.79
2022-10-16T13:26:32.251Z,45.88
2022-10-16T13:31:36.257Z,45.68
2022-10-16T13:36:47.278Z,44.89
2022-10-16T13:42:04.888Z,45.09
2022-10-16T13:47:18.045Z,45.23
2022-10-16T13:52:23.486Z,46.21
2022-10-16T13:57:27.926Z,46.48
2022-10-16T14:02:35.831Z,46.81
2022-10-16T14:07:42.900Z,46.57
2022-10-16T14:12:47.052Z,47.76
2022-10-16T14:17:53.853Z,48.54
2022-10-16T14:23:02.797Z,47.71
2022-10-16T14:28:07.482Z,47.43
2022-10-16T14:33:22.678Z,47.24
2022-10-16T14:38:28.139Z,50.62
2022-10-16T14:43:34.885Z,55.06
2022-10-16T14:48:42.501Z,55.67
2022-10-16T14:53:47.797Z,53.53
2022-10-16T14:58:52.881Z,52.39
2022-10-16T15:03:56.791Z,53.32
2022-10-16T15:09:02.249Z,54.40
2022-10-16T15:14:06.388Z,57.48
2022-10-16T15:19:10.289Z,60.26
2022-10-16T15:24:18.038Z,61.35
2022-10-16T15:29:25.228Z,63.59
2022-10-16T15:34:29.117Z,65.01
2022-10-16T15:39:39.027Z,67.01
2022-10-16T15:44:45.011Z,66.82
2022-10-16T15:49:51.580Z,67.94
2022-10-16T15:54:56.837Z,69.90
2022-10-16T16:00:02.021Z,70.72
2022-10-16T16:05:16.081Z,70.50
2022-10-16T16:10:24.488Z,70.91
2022-10-16T16:15:28.284Z,70.35
2022-10-16T16:20:32.017Z,70.82
2022-10-16T16:25:37.325Z,70.58
2022-10-16T16:30:41.142Z,69.62
2022-10-16T16:35:45.530Z,70.88
2022-10-16T16:40:54.093Z,71.48
2022-10-16T16:46:03.664Z,73.28
2022-10-16T16:51:07.727Z,73.33
2022-10-16T16:56:13.138Z,72.01
2022-10-16T17:01:20.575Z,72.77
2022-10-16T17:06:26.629Z,73.25
2022-10-16T17:11:31.963Z,76.11
2022-10-16T17:16:37.006Z,81.88
2022-10-16T17:21:40.831Z,82.24
2022-10-16T17:26:49.313Z,79.60
2022-10-16T17:31:53.346Z,80.27
2022-10-16T17:36:57.093Z,79.47
2022-10-16T17:42:15.668Z,80.08
2022-10-16T17:47:20.889Z,83.22
2022-10-16T17:52:24.720Z,81.36
2022-10-16T17:57:28.899Z,81.75
2022-10-16T18:02:36.038Z,81.66
2022-10-16T18:12:49.962Z,87.45
2022-10-16T18:17:55.213Z,87.87
2022-10-16T18:22:59.255Z,86.32
2022-10-16T18:28:06.830Z,84.03
2022-10-16T18:33:11.850Z,80.40
2022-10-16T18:38:15.982Z,80.22
2022-10-16T18:43:21.066Z,79.34
2022-10-16T18:48:26.182Z,79.66
2022-10-16T18:53:30.135Z,80.27
2022-10-16T18:58:35.963Z,79.72
2022-10-16T19:03:42.034Z,79.49
2022-10-16T19:08:45.842Z,80.50
2022-10-16T19:13:50.101Z,82.57
2022-10-16T19:18:57.824Z,82.22
2022-10-16T19:24:02.697Z,81.57
2022-10-16T19:29:07.334Z,84.41
2022-10-16T19:34:12.861Z,83.29
2022-10-16T19:39:17.899Z,85.13
2022-10-16T19:44:21.696Z,81.38
2022-10-16T19:49:26.917Z,81.33
2022-10-16T19:54:30.584Z,81.95
2022-10-16T19:59:34.660Z,80.84
2022-10-16T20:04:39.820Z,83.09
2022-10-16T20:09:43.566Z,83.35
2022-10-16T20:14:47.908Z,83.73
2022-10-16T20:19:53.240Z,82.27
2022-10-16T20:24:57.152Z,82.21
2022-10-16T20:30:01.259Z,80.77
2022-10-16T20:35:08.004Z,83.63
2022-10-16T20:40:12.735Z,82.53
2022-10-16T20:45:16.681Z,85.20
2022-10-16T20:50:21.772Z,86.90
2022-10-16T20:55:25.476Z,85.85
2022-10-16T21:00:30.679Z,89.03
2022-10-16T21:05:40.799Z,84.27
2022-10-16T21:10:44.580Z,86.05
2022-10-16T21:15:50.068Z,83.27
2022-10-16T21:20:55.348Z,85.86
2022-10-16T21:25:59.434Z,85.43
2022-10-16T21:31:11.799Z,86.29
2022-10-16T21:36:17.957Z,88.04
2022-10-16T21:41:22.897Z,91.26
2022-10-16T21:46:28.116Z,88.31
2022-10-16T21:51:37.726Z,89.20
2022-10-16T21:56:41.377Z,95.03
2022-10-16T22:01:45.233Z,91.75
2022-10-16T22:06:50.429Z,94.11
2022-10-16T22:11:54.172Z,95.53
2022-10-16T22:16:57.869Z,94.24
2022-10-16T22:22:03.113Z,91.11
2022-10-16T22:27:06.811Z,92.29
2022-10-16T22:32:10.427Z,88.56
2022-10-16T22:37:15.454Z,93.13
2022-10-16T22:42:19.223Z,90.66
2022-10-16T22:47:22.882Z,91.63
2022-10-16T22:52:27.952Z,90.65
2022-10-16T22:57:32.134Z,95.64
2022-10-16T23:02:35.773Z,94.80
2022-10-16T23:07:41.539Z,92.99
2022-10-16T23:12:46.452Z,90.86
2022-10-16T23:17:50.039Z,95.85
2022-10-16T23:22:55.313Z,98.61
2022-10-16T23:27:58.941Z,100.00
2022-10-16T23:33:02.591Z,99.97
2022-10-16T23:38:08.017Z,96.02
2022-10-16T23:43:11.635Z,94.75
2022-10-16T23:48:15.308Z,95.59
2022-10-16T23:53:20.872Z,95.29
2022-10-16T23:58:24.509Z,100.00
